sensor_id;sensor_type;location;lat;lon;timestamp;pressure;altitude;pressure_sealevel;temperature;humidity
49515;BME280;35415;47.870;16.058;2023-01-31T00:01:28;97208.94;;;3.49;71.44
49515;BME280;35415;47.870;16.058;2023-01-31T00:03:58;97229.38;;;3.67;72.30
49515;BME280;35415;47.870;16.058;2023-01-31T00:06:26;97230.06;;;3.62;73.67
49515;BME280;35415;47.870;16.058;2023-01-31T00:08:55;97227.84;;;3.59;74.64
49515;BME280;35415;47.870;16.058;2023-01-31T00:11:25;97221.34;;;3.55;75.32
49515;BME280;35415;47.870;16.058;2023-01-31T00:13:53;97221.34;;;3.55;75.35
49515;BME280;35415;47.870;16.058;2023-01-31T00:16:21;97240.78;;;3.56;75.13
49515;BME280;35415;47.870;16.058;2023-01-31T00:18:48;97202.09;;;3.23;74.42
49515;BME280;35415;47.870;16.058;2023-01-31T00:21:17;97203.06;;;3.29;74.18
49515;BME280;35415;47.870;16.058;2023-01-31T00:23:46;97241.66;;;3.50;74.06
49515;BME280;35415;47.870;16.058;2023-01-31T00:26:17;97236.50;;;3.37;74.17
49515;BME280;35415;47.870;16.058;2023-01-31T00:28:48;97236.34;;;3.50;74.03
49515;BME280;35415;47.870;16.058;2023-01-31T00:31:16;97243.28;;;3.51;72.38
49515;BME280;35415;47.870;16.058;2023-01-31T00:33:47;97234.72;;;3.49;73.65
49515;BME280;35415;47.870;16.058;2023-01-31T00:36:16;97261.09;;;3.50;73.82
49515;BME280;35415;47.870;16.058;2023-01-31T00:38:47;97256.56;;;3.51;74.55
49515;BME280;35415;47.870;16.058;2023-01-31T00:41:15;97239.69;;;3.45;75.79
49515;BME280;35415;47.870;16.058;2023-01-31T00:43:42;97229.13;;;3.39;75.90
49515;BME280;35415;47.870;16.058;2023-01-31T00:46:11;97244.84;;;3.40;77.07
49515;BME280;35415;47.870;16.058;2023-01-31T00:48:38;97266.94;;;3.41;77.73
49515;BME280;35415;47.870;16.058;2023-01-31T00:51:06;97214.88;;;3.15;78.24
49515;BME280;35415;47.870;16.058;2023-01-31T00:53:36;97203.41;;;3.14;78.55
49515;BME280;35415;47.870;16.058;2023-01-31T00:56:07;97261.69;;;3.34;78.68
49515;BME280;35415;47.870;16.058;2023-01-31T00:58:35;97227.06;;;3.22;78.99
49515;BME280;35415;47.870;16.058;2023-01-31T01:01:07;97259.69;;;3.29;78.18
49515;BME280;35415;47.870;16.058;2023-01-31T01:03:37;97241.81;;;3.18;78.29
49515;BME280;35415;47.870;16.058;2023-01-31T01:06:06;97269.44;;;3.36;77.10
49515;BME280;35415;47.870;16.058;2023-01-31T01:08:35;97228.47;;;3.07;75.76
49515;BME280;35415;47.870;16.058;2023-01-31T01:11:06;97278.44;;;3.35;75.67
49515;BME280;35415;47.870;16.058;2023-01-31T01:13:34;97244.50;;;3.37;75.22
49515;BME280;35415;47.870;16.058;2023-01-31T01:16:06;97263.91;;;3.37;74.95
49515;BME280;35415;47.870;16.058;2023-01-31T01:18:34;97263.69;;;3.39;72.82
49515;BME280;35415;47.870;16.058;2023-01-31T01:21:09;97262.47;;;3.35;71.79
49515;BME280;35415;47.870;16.058;2023-01-31T01:23:37;97269.97;;;3.44;70.49
49515;BME280;35415;47.870;16.058;2023-01-31T01:26:05;97197.06;;;3.15;69.74
49515;BME280;35415;47.870;16.058;2023-01-31T01:28:33;97250.66;;;3.49;69.19
49515;BME280;35415;47.870;16.058;2023-01-31T01:31:04;97250.16;;;3.58;67.86
49515;BME280;35415;47.870;16.058;2023-01-31T01:33:31;97201.44;;;3.28;69.20
49515;BME280;35415;47.870;16.058;2023-01-31T01:36:00;97256.78;;;3.68;66.15
49515;BME280;35415;47.870;16.058;2023-01-31T01:38:29;97233.22;;;3.71;66.05
49515;BME280;35415;47.870;16.058;2023-01-31T01:40:56;97176.56;;;3.22;66.33
49515;BME280;35415;47.870;16.058;2023-01-31T01:43:38;97197.59;;;3.42;66.05
49515;BME280;35415;47.870;16.058;2023-01-31T01:46:08;97261.00;;;3.75;65.25
49515;BME280;35415;47.870;16.058;2023-01-31T01:48:38;97198.69;;;3.35;64.59
49515;BME280;35415;47.870;16.058;2023-01-31T01:51:06;97208.19;;;3.60;64.77
49515;BME280;35415;47.870;16.058;2023-01-31T01:53:41;97248.06;;;3.79;64.21
49515;BME280;35415;47.870;16.058;2023-01-31T01:56:14;97234.41;;;3.75;64.21
49515;BME280;35415;47.870;16.058;2023-01-31T01:58:46;97234.16;;;3.77;64.79
49515;BME280;35415;47.870;16.058;2023-01-31T02:01:15;97173.59;;;3.30;64.30
49515;BME280;35415;47.870;16.058;2023-01-31T02:03:44;97262.69;;;3.88;64.34
49515;BME280;35415;47.870;16.058;2023-01-31T02:06:15;97260.84;;;3.88;64.37
49515;BME280;35415;47.870;16.058;2023-01-31T02:08:45;97253.91;;;3.87;65.38
49515;BME280;35415;47.870;16.058;2023-01-31T02:11:17;97281.09;;;3.89;65.24
49515;BME280;35415;47.870;16.058;2023-01-31T02:13:49;97253.28;;;3.85;64.67
49515;BME280;35415;47.870;16.058;2023-01-31T02:16:17;97272.94;;;3.84;65.39
49515;BME280;35415;47.870;16.058;2023-01-31T02:18:46;97253.28;;;3.85;64.80
49515;BME280;35415;47.870;16.058;2023-01-31T02:21:39;97252.84;;;3.88;64.93
49515;BME280;35415;47.870;16.058;2023-01-31T02:24:53;97269.63;;;3.89;65.42
49515;BME280;35415;47.870;16.058;2023-01-31T02:27:45;97258.34;;;3.75;65.44
49515;BME280;35415;47.870;16.058;2023-01-31T02:33:19;97248.94;;;3.91;65.17
49515;BME280;35415;47.870;16.058;2023-01-31T02:35:57;97241.56;;;3.75;65.68
49515;BME280;35415;47.870;16.058;2023-01-31T02:38:40;97285.59;;;3.89;65.09
49515;BME280;35415;47.870;16.058;2023-01-31T02:41:16;97322.41;;;3.92;65.93
49515;BME280;35415;47.870;16.058;2023-01-31T02:43:52;97299.25;;;3.92;65.97
49515;BME280;35415;47.870;16.058;2023-01-31T02:46:43;97249.63;;;3.68;66.20
49515;BME280;35415;47.870;16.058;2023-01-31T02:49:21;97305.03;;;3.89;65.88
49515;BME280;35415;47.870;16.058;2023-01-31T02:52:07;97251.09;;;3.64;65.28
49515;BME280;35415;47.870;16.058;2023-01-31T02:54:54;97288.63;;;3.92;65.17
49515;BME280;35415;47.870;16.058;2023-01-31T02:57:40;97295.78;;;3.92;64.62
49515;BME280;35415;47.870;16.058;2023-01-31T03:00:10;97313.59;;;3.91;65.15
49515;BME280;35415;47.870;16.058;2023-01-31T03:02:38;97302.38;;;3.89;64.57
49515;BME280;35415;47.870;16.058;2023-01-31T03:05:13;97217.59;;;3.45;64.25
49515;BME280;35415;47.870;16.058;2023-01-31T03:07:43;97260.25;;;3.86;64.34
49515;BME280;35415;47.870;16.058;2023-01-31T03:10:31;97284.47;;;3.97;63.85
49515;BME280;35415;47.870;16.058;2023-01-31T03:13:20;97310.25;;;3.96;63.46
49515;BME280;35415;47.870;16.058;2023-01-31T03:15:57;97287.13;;;3.97;63.08
49515;BME280;35415;47.870;16.058;2023-01-31T03:18:51;97304.72;;;3.98;62.95
49515;BME280;35415;47.870;16.058;2023-01-31T03:21:24;97309.00;;;3.99;62.70
49515;BME280;35415;47.870;16.058;2023-01-31T03:23:56;97293.63;;;4.01;61.68
49515;BME280;35415;47.870;16.058;2023-01-31T03:26:24;97307.97;;;4.00;61.82
49515;BME280;35415;47.870;16.058;2023-01-31T03:28:53;97311.44;;;4.00;61.72
49515;BME280;35415;47.870;16.058;2023-01-31T03:31:26;97301.38;;;4.02;61.75
49515;BME280;35415;47.870;16.058;2023-01-31T03:33:57;97301.09;;;3.92;61.99
49515;BME280;35415;47.870;16.058;2023-01-31T03:36:34;97316.41;;;3.97;61.35
49515;BME280;35415;47.870;16.058;2023-01-31T03:39:10;97324.75;;;4.00;61.48
49515;BME280;35415;47.870;16.058;2023-01-31T03:41:49;97314.09;;;4.00;61.89
49515;BME280;35415;47.870;16.058;2023-01-31T03:44:23;97288.63;;;3.92;60.95
49515;BME280;35415;47.870;16.058;2023-01-31T03:46:55;97305.88;;;4.02;61.40
49515;BME280;35415;47.870;16.058;2023-01-31T03:49:26;97320.22;;;4.01;61.23
49515;BME280;35415;47.870;16.058;2023-01-31T03:51:59;97287.00;;;3.91;61.47
49515;BME280;35415;47.870;16.058;2023-01-31T03:54:33;97303.03;;;4.03;61.62
49515;BME280;35415;47.870;16.058;2023-01-31T03:57:05;97296.22;;;4.07;61.04
49515;BME280;35415;47.870;16.058;2023-01-31T03:59:38;97295.63;;;4.05;61.59
49515;BME280;35415;47.870;16.058;2023-01-31T04:02:11;97309.06;;;4.10;60.76
49515;BME280;35415;47.870;16.058;2023-01-31T04:04:41;97306.63;;;4.09;60.45
49515;BME280;35415;47.870;16.058;2023-01-31T04:07:12;97314.16;;;4.12;60.67
49515;BME280;35415;47.870;16.058;2023-01-31T04:09:39;97294.13;;;4.09;60.63
49515;BME280;35415;47.870;16.058;2023-01-31T04:12:06;97304.19;;;4.07;61.52
49515;BME280;35415;47.870;16.058;2023-01-31T04:14:37;97312.19;;;4.07;61.78
49515;BME280;35415;47.870;16.058;2023-01-31T04:17:05;97320.97;;;4.08;62.06
49515;BME280;35415;47.870;16.058;2023-01-31T04:19:32;97314.25;;;4.05;61.95
49515;BME280;35415;47.870;16.058;2023-01-31T04:21:59;97329.41;;;4.05;62.77
49515;BME280;35415;47.870;16.058;2023-01-31T04:24:28;97324.44;;;4.08;64.25
49515;BME280;35415;47.870;16.058;2023-01-31T04:26:55;97317.34;;;4.02;65.61
49515;BME280;35415;47.870;16.058;2023-01-31T04:29:22;97310.63;;;4.00;65.40
49515;BME280;35415;47.870;16.058;2023-01-31T04:31:50;97308.41;;;3.97;65.30
49515;BME280;35415;47.870;16.058;2023-01-31T04:34:17;97321.94;;;3.95;65.00
49515;BME280;35415;47.870;16.058;2023-01-31T04:36:44;97308.06;;;3.93;64.91
49515;BME280;35415;47.870;16.058;2023-01-31T04:39:11;97285.53;;;3.59;65.21
49515;BME280;35415;47.870;16.058;2023-01-31T04:41:42;97317.81;;;3.81;65.22
49515;BME280;35415;47.870;16.058;2023-01-31T04:44:10;97329.72;;;3.78;66.38
49515;BME280;35415;47.870;16.058;2023-01-31T04:46:37;97356.25;;;3.85;67.88
49515;BME280;35415;47.870;16.058;2023-01-31T04:49:05;97332.50;;;3.83;68.64
49515;BME280;35415;47.870;16.058;2023-01-31T04:51:32;97330.97;;;3.76;68.36
49515;BME280;35415;47.870;16.058;2023-01-31T04:53:59;97326.69;;;3.75;67.99
49515;BME280;35415;47.870;16.058;2023-01-31T04:56:27;97339.19;;;3.74;66.48
49515;BME280;35415;47.870;16.058;2023-01-31T04:58:56;97255.28;;;3.23;66.05
49515;BME280;35415;47.870;16.058;2023-01-31T05:01:24;97308.53;;;3.72;65.37
49515;BME280;35415;47.870;16.058;2023-01-31T05:03:52;97288.94;;;3.48;64.74
49515;BME280;35415;47.870;16.058;2023-01-31T05:06:21;97333.50;;;3.71;64.44
49515;BME280;35415;47.870;16.058;2023-01-31T05:08:52;97263.69;;;3.39;63.62
49515;BME280;35415;47.870;16.058;2023-01-31T05:11:26;97348.44;;;3.72;63.50
49515;BME280;35415;47.870;16.058;2023-01-31T05:13:53;97345.19;;;3.70;63.40
49515;BME280;35415;47.870;16.058;2023-01-31T05:16:22;97287.16;;;3.23;62.47
49515;BME280;35415;47.870;16.058;2023-01-31T05:18:52;97346.94;;;3.76;61.58
49515;BME280;35415;47.870;16.058;2023-01-31T05:21:22;97340.94;;;3.80;61.01
49515;BME280;35415;47.870;16.058;2023-01-31T05:23:49;97353.44;;;3.80;61.03
49515;BME280;35415;47.870;16.058;2023-01-31T05:26:16;97341.31;;;3.84;59.70
49515;BME280;35415;47.870;16.058;2023-01-31T05:28:45;97334.59;;;3.81;60.22
49515;BME280;35415;47.870;16.058;2023-01-31T05:31:12;97357.28;;;3.84;60.03
49515;BME280;35415;47.870;16.058;2023-01-31T05:33:41;97350.09;;;3.84;60.48
49515;BME280;35415;47.870;16.058;2023-01-31T05:36:09;97337.41;;;3.86;59.26
49515;BME280;35415;47.870;16.058;2023-01-31T05:38:36;97351.72;;;3.85;59.29
49515;BME280;35415;47.870;16.058;2023-01-31T05:41:03;97392.97;;;3.95;58.74
49515;BME280;35415;47.870;16.058;2023-01-31T05:43:30;97360.81;;;3.96;59.04
49515;BME280;35415;47.870;16.058;2023-01-31T05:45:58;97337.03;;;3.83;58.64
49515;BME280;35415;47.870;16.058;2023-01-31T05:48:25;97338.13;;;3.93;58.96
49515;BME280;35415;47.870;16.058;2023-01-31T05:50:54;97375.41;;;3.93;58.68
49515;BME280;35415;47.870;16.058;2023-01-31T05:53:21;97359.78;;;3.97;58.47
49515;BME280;35415;47.870;16.058;2023-01-31T05:55:49;97361.88;;;3.95;59.33
49515;BME280;35415;47.870;16.058;2023-01-31T05:58:16;97361.06;;;3.58;59.53
49515;BME280;35415;47.870;16.058;2023-01-31T06:00:43;97320.94;;;3.59;59.22
49515;BME280;35415;47.870;16.058;2023-01-31T06:03:11;97293.66;;;3.46;59.59
49515;BME280;35415;47.870;16.058;2023-01-31T06:05:38;97312.88;;;3.48;60.04
49515;BME280;35415;47.870;16.058;2023-01-31T06:08:07;97383.50;;;3.99;60.94
49515;BME280;35415;47.870;16.058;2023-01-31T06:10:35;97410.22;;;3.92;62.34
49515;BME280;35415;47.870;16.058;2023-01-31T06:13:02;97415.69;;;3.97;64.26
49515;BME280;35415;47.870;16.058;2023-01-31T06:15:32;97346.63;;;3.47;70.73
49515;BME280;35415;47.870;16.058;2023-01-31T06:17:59;97403.69;;;3.70;71.40
49515;BME280;35415;47.870;16.058;2023-01-31T06:20:26;97430.44;;;3.75;71.94
49515;BME280;35415;47.870;16.058;2023-01-31T06:22:53;97440.09;;;3.69;71.71
49515;BME280;35415;47.870;16.058;2023-01-31T06:25:22;97442.03;;;3.62;71.40
49515;BME280;35415;47.870;16.058;2023-01-31T06:27:49;97452.13;;;3.53;73.10
49515;BME280;35415;47.870;16.058;2023-01-31T06:30:16;97459.50;;;3.51;75.45
49515;BME280;35415;47.870;16.058;2023-01-31T06:32:43;97453.00;;;3.47;77.02
49515;BME280;35415;47.870;16.058;2023-01-31T06:35:10;97460.22;;;3.40;79.23
49515;BME280;35415;47.870;16.058;2023-01-31T06:37:37;97463.78;;;3.27;79.82
49515;BME280;35415;47.870;16.058;2023-01-31T06:40:05;97450.78;;;3.19;79.56
49515;BME280;35415;47.870;16.058;2023-01-31T06:42:34;97423.06;;;2.77;79.44
49515;BME280;35415;47.870;16.058;2023-01-31T06:45:02;97431.81;;;2.78;79.56
49515;BME280;35415;47.870;16.058;2023-01-31T06:47:29;97472.56;;;3.03;75.77
49515;BME280;35415;47.870;16.058;2023-01-31T06:49:56;97488.50;;;3.03;71.56
49515;BME280;35415;47.870;16.058;2023-01-31T06:52:23;97471.78;;;2.96;71.67
49515;BME280;35415;47.870;16.058;2023-01-31T06:54:50;97483.34;;;3.08;70.12
49515;BME280;35415;47.870;16.058;2023-01-31T06:57:18;97479.66;;;3.09;67.66
49515;BME280;35415;47.870;16.058;2023-01-31T06:59:46;97509.88;;;3.15;67.03
49515;BME280;35415;47.870;16.058;2023-01-31T07:02:13;97478.19;;;3.13;67.19
49515;BME280;35415;47.870;16.058;2023-01-31T07:04:41;97502.94;;;3.14;66.77
49515;BME280;35415;47.870;16.058;2023-01-31T07:07:08;97490.59;;;3.26;64.31
49515;BME280;35415;47.870;16.058;2023-01-31T07:09:35;97502.84;;;3.27;64.68
49515;BME280;35415;47.870;16.058;2023-01-31T07:12:02;97511.44;;;3.29;64.55
49515;BME280;35415;47.870;16.058;2023-01-31T07:14:30;97494.81;;;3.33;62.58
49515;BME280;35415;47.870;16.058;2023-01-31T07:16:58;97498.84;;;3.43;59.74
49515;BME280;35415;47.870;16.058;2023-01-31T07:19:26;97515.25;;;3.40;60.37
49515;BME280;35415;47.870;16.058;2023-01-31T07:21:53;97497.22;;;3.42;60.30
49515;BME280;35415;47.870;16.058;2023-01-31T07:24:21;97503.78;;;3.39;59.42
49515;BME280;35415;47.870;16.058;2023-01-31T07:26:51;97526.03;;;3.45;58.06
49515;BME280;35415;47.870;16.058;2023-01-31T07:29:18;97547.91;;;3.47;57.70
49515;BME280;35415;47.870;16.058;2023-01-31T07:31:45;97538.25;;;3.52;56.28
49515;BME280;35415;47.870;16.058;2023-01-31T07:34:14;97533.56;;;3.54;56.78
49515;BME280;35415;47.870;16.058;2023-01-31T07:36:41;97541.69;;;3.59;55.49
49515;BME280;35415;47.870;16.058;2023-01-31T07:39:08;97522.03;;;3.60;56.25
49515;BME280;35415;47.870;16.058;2023-01-31T07:41:36;97565.78;;;3.65;54.70
49515;BME280;35415;47.870;16.058;2023-01-31T07:44:03;97536.72;;;3.70;54.80
49515;BME280;35415;47.870;16.058;2023-01-31T07:46:33;97541.59;;;3.73;54.12
49515;BME280;35415;47.870;16.058;2023-01-31T07:49:02;97575.97;;;3.74;54.32
49515;BME280;35415;47.870;16.058;2023-01-31T07:51:30;97565.25;;;3.81;53.53
49515;BME280;35415;47.870;16.058;2023-01-31T07:53:57;97542.13;;;3.81;53.29
49515;BME280;35415;47.870;16.058;2023-01-31T07:56:24;97575.88;;;3.87;52.37
49515;BME280;35415;47.870;16.058;2023-01-31T07:58:58;97565.00;;;3.89;53.13
49515;BME280;35415;47.870;16.058;2023-01-31T08:01:39;97558.22;;;3.93;51.51
49515;BME280;35415;47.870;16.058;2023-01-31T08:04:30;97576.38;;;3.96;52.17
49515;BME280;35415;47.870;16.058;2023-01-31T08:07:05;97559.38;;;3.97;52.40
49515;BME280;35415;47.870;16.058;2023-01-31T08:09:41;97582.91;;;4.00;51.29
49515;BME280;35415;47.870;16.058;2023-01-31T08:12:18;97599.28;;;4.04;50.82
49515;BME280;35415;47.870;16.058;2023-01-31T08:14:51;97592.84;;;4.11;51.36
49515;BME280;35415;47.870;16.058;2023-01-31T08:17:24;97582.56;;;4.15;52.18
49515;BME280;35415;47.870;16.058;2023-01-31T08:19:57;97576.22;;;4.16;53.18
49515;BME280;35415;47.870;16.058;2023-01-31T08:22:31;97582.78;;;4.13;53.84
49515;BME280;35415;47.870;16.058;2023-01-31T08:25:05;97603.06;;;4.14;54.04
49515;BME280;35415;47.870;16.058;2023-01-31T08:27:39;97595.66;;;4.16;53.45
49515;BME280;35415;47.870;16.058;2023-01-31T08:30:12;97587.59;;;4.05;53.87
49515;BME280;35415;47.870;16.058;2023-01-31T08:32:46;97594.63;;;4.17;54.60
49515;BME280;35415;47.870;16.058;2023-01-31T08:35:19;97617.19;;;4.15;54.92
49515;BME280;35415;47.870;16.058;2023-01-31T08:38:12;97611.03;;;4.14;54.58
49515;BME280;35415;47.870;16.058;2023-01-31T08:40:57;97608.00;;;4.11;55.27
49515;BME280;35415;47.870;16.058;2023-01-31T08:43:45;97608.75;;;4.18;55.79
49515;BME280;35415;47.870;16.058;2023-01-31T08:46:35;97616.75;;;4.18;55.76
49515;BME280;35415;47.870;16.058;2023-01-31T08:49:22;97602.41;;;4.19;56.34
49515;BME280;35415;47.870;16.058;2023-01-31T08:52:10;97614.06;;;4.18;57.16
49515;BME280;35415;47.870;16.058;2023-01-31T08:54:59;97630.88;;;4.18;58.19
49515;BME280;35415;47.870;16.058;2023-01-31T08:57:46;97629.03;;;4.19;58.79
49515;BME280;35415;47.870;16.058;2023-01-31T09:00:34;97654.63;;;4.20;60.08
49515;BME280;35415;47.870;16.058;2023-01-31T09:03:21;97634.34;;;4.19;60.92
49515;BME280;35415;47.870;16.058;2023-01-31T09:06:11;97623.22;;;4.04;61.86
49515;BME280;35415;47.870;16.058;2023-01-31T09:09:00;97631.31;;;4.15;63.34
49515;BME280;35415;47.870;16.058;2023-01-31T09:11:48;97634.41;;;4.12;64.04
49515;BME280;35415;47.870;16.058;2023-01-31T09:14:35;97614.75;;;3.88;64.15
49515;BME280;35415;47.870;16.058;2023-01-31T09:17:23;97642.69;;;4.04;64.33
49515;BME280;35415;47.870;16.058;2023-01-31T09:20:10;97632.66;;;4.00;65.46
49515;BME280;35415;47.870;16.058;2023-01-31T09:22:58;97635.75;;;3.97;65.59
49515;BME280;35415;47.870;16.058;2023-01-31T09:25:51;97635.38;;;3.93;64.96
49515;BME280;35415;47.870;16.058;2023-01-31T09:28:41;97643.38;;;3.93;63.74
49515;BME280;35415;47.870;16.058;2023-01-31T09:31:28;97639.88;;;3.92;63.62
49515;BME280;35415;47.870;16.058;2023-01-31T09:34:16;97637.81;;;3.95;62.59
49515;BME280;35415;47.870;16.058;2023-01-31T09:37:03;97631.69;;;3.94;61.85
49515;BME280;35415;47.870;16.058;2023-01-31T09:39:51;97634.56;;;3.92;62.24
49515;BME280;35415;47.870;16.058;2023-01-31T09:42:41;97638.69;;;3.88;61.77
49515;BME280;35415;47.870;16.058;2023-01-31T09:45:34;97637.22;;;3.92;61.15
49515;BME280;35415;47.870;16.058;2023-01-31T09:48:25;97659.13;;;3.95;60.10
49515;BME280;35415;47.870;16.058;2023-01-31T09:51:15;97660.75;;;3.96;59.70
49515;BME280;35415;47.870;16.058;2023-01-31T09:54:06;97648.47;;;3.95;59.58
49515;BME280;35415;47.870;16.058;2023-01-31T09:57:06;97653.19;;;3.92;60.18
49515;BME280;35415;47.870;16.058;2023-01-31T10:00:05;97665.31;;;3.88;60.87
49515;BME280;35415;47.870;16.058;2023-01-31T10:03:09;97658.34;;;3.87;60.12
49515;BME280;35415;47.870;16.058;2023-01-31T10:06:06;97653.84;;;3.88;59.25
49515;BME280;35415;47.870;16.058;2023-01-31T10:09:02;97648.56;;;3.81;60.00
49515;BME280;35415;47.870;16.058;2023-01-31T10:11:53;97651.19;;;3.88;59.49
49515;BME280;35415;47.870;16.058;2023-01-31T10:14:46;97657.53;;;3.87;60.49
49515;BME280;35415;47.870;16.058;2023-01-31T10:17:17;97632.56;;;3.88;59.81
49515;BME280;35415;47.870;16.058;2023-01-31T10:19:51;97610.25;;;3.89;59.98
49515;BME280;35415;47.870;16.058;2023-01-31T10:22:22;97561.94;;;3.60;59.82
49515;BME280;35415;47.870;16.058;2023-01-31T10:24:56;97607.97;;;3.92;59.51
49515;BME280;35415;47.870;16.058;2023-01-31T10:27:33;97607.66;;;4.01;58.13
49515;BME280;35415;47.870;16.058;2023-01-31T10:30:03;97585.84;;;3.92;58.34
49515;BME280;35415;47.870;16.058;2023-01-31T10:32:34;97612.03;;;3.95;57.76
49515;BME280;35415;47.870;16.058;2023-01-31T10:35:11;97634.25;;;4.07;57.57
49515;BME280;35415;47.870;16.058;2023-01-31T10:37:42;97633.38;;;4.13;55.11
49515;BME280;35415;47.870;16.058;2023-01-31T10:40:14;97615.78;;;4.12;55.83
49515;BME280;35415;47.870;16.058;2023-01-31T10:42:45;97660.81;;;4.14;54.79
49515;BME280;35415;47.870;16.058;2023-01-31T10:48:14;97582.50;;;4.03;55.32
49515;BME280;35415;47.870;16.058;2023-01-31T10:50:53;97641.47;;;4.25;54.82
49515;BME280;35415;47.870;16.058;2023-01-31T10:53:38;97617.06;;;4.28;55.60
49515;BME280;35415;47.870;16.058;2023-01-31T10:56:11;97617.44;;;4.32;54.69
49515;BME280;35415;47.870;16.058;2023-01-31T10:58:44;97627.72;;;4.28;55.35
49515;BME280;35415;47.870;16.058;2023-01-31T11:01:12;97601.53;;;4.25;55.21
49515;BME280;35415;47.870;16.058;2023-01-31T11:03:49;97641.41;;;4.32;55.65
49515;BME280;35415;47.870;16.058;2023-01-31T11:06:20;97640.22;;;4.28;55.93
49515;BME280;35415;47.870;16.058;2023-01-31T11:08:49;97611.59;;;4.23;56.94
49515;BME280;35415;47.870;16.058;2023-01-31T11:11:19;97604.66;;;4.22;57.13
49515;BME280;35415;47.870;16.058;2023-01-31T11:13:57;97619.19;;;4.19;57.73
49515;BME280;35415;47.870;16.058;2023-01-31T11:16:27;97606.72;;;4.20;58.29
49515;BME280;35415;47.870;16.058;2023-01-31T11:18:56;97615.53;;;4.20;58.01
49515;BME280;35415;47.870;16.058;2023-01-31T11:21:30;97607.13;;;4.17;58.41
49515;BME280;35415;47.870;16.058;2023-01-31T11:24:01;97610.19;;;4.20;57.68
49515;BME280;35415;47.870;16.058;2023-01-31T11:26:31;97606.09;;;4.18;58.53
49515;BME280;35415;47.870;16.058;2023-01-31T11:28:59;97627.34;;;4.25;58.04
49515;BME280;35415;47.870;16.058;2023-01-31T11:31:40;97591.69;;;4.26;57.55
49515;BME280;35415;47.870;16.058;2023-01-31T11:34:20;97592.28;;;4.28;57.24
49515;BME280;35415;47.870;16.058;2023-01-31T11:36:49;97595.28;;;4.13;57.13
49515;BME280;35415;47.870;16.058;2023-01-31T11:39:29;97596.72;;;4.34;56.55
49515;BME280;35415;47.870;16.058;2023-01-31T11:42:04;97576.84;;;4.36;56.09
49515;BME280;35415;47.870;16.058;2023-01-31T11:44:32;97571.50;;;4.36;55.52
49515;BME280;35415;47.870;16.058;2023-01-31T11:47:02;97559.53;;;4.45;54.49
49515;BME280;35415;47.870;16.058;2023-01-31T11:49:33;97577.53;;;4.50;54.86
49515;BME280;35415;47.870;16.058;2023-01-31T11:52:13;97562.53;;;4.56;54.56
49515;BME280;35415;47.870;16.058;2023-01-31T11:54:45;97540.09;;;4.63;53.42
49515;BME280;35415;47.870;16.058;2023-01-31T11:57:14;97560.31;;;4.71;52.77
49515;BME280;35415;47.870;16.058;2023-01-31T11:59:42;97560.44;;;4.76;51.93
49515;BME280;35415;47.870;16.058;2023-01-31T12:02:24;97561.25;;;4.76;52.64
49515;BME280;35415;47.870;16.058;2023-01-31T12:04:52;97563.81;;;4.83;51.59
49515;BME280;35415;47.870;16.058;2023-01-31T12:07:23;97531.84;;;4.83;51.58
49515;BME280;35415;47.870;16.058;2023-01-31T12:09:51;97550.97;;;4.80;50.79
49515;BME280;35415;47.870;16.058;2023-01-31T12:12:36;97537.19;;;4.83;51.43
49515;BME280;35415;47.870;16.058;2023-01-31T12:15:13;97540.91;;;4.64;51.30
49515;BME280;35415;47.870;16.058;2023-01-31T12:17:43;97576.69;;;4.86;50.50
49515;BME280;35415;47.870;16.058;2023-01-31T12:20:21;97544.34;;;4.82;50.93
49515;BME280;35415;47.870;16.058;2023-01-31T12:22:58;97533.94;;;4.63;50.57
49515;BME280;35415;47.870;16.058;2023-01-31T12:25:45;97563.00;;;4.82;50.93
49515;BME280;35415;47.870;16.058;2023-01-31T12:28:30;97542.97;;;4.80;50.81
49515;BME280;35415;47.870;16.058;2023-01-31T12:31:26;97529.41;;;4.81;50.14
49515;BME280;35415;47.870;16.058;2023-01-31T12:34:21;97542.59;;;4.76;50.64
49515;BME280;35415;47.870;16.058;2023-01-31T12:37:17;97520.09;;;4.72;50.50
49515;BME280;35415;47.870;16.058;2023-01-31T12:40:00;97533.94;;;4.81;50.60
49515;BME280;35415;47.870;16.058;2023-01-31T12:42:39;97529.41;;;4.81;50.70
49515;BME280;35415;47.870;16.058;2023-01-31T12:48:35;97527.72;;;4.87;50.06
49515;BME280;35415;47.870;16.058;2023-01-31T12:51:13;97519.03;;;4.92;50.63
49515;BME280;35415;47.870;16.058;2023-01-31T12:53:57;97537.59;;;4.98;49.96
49515;BME280;35415;47.870;16.058;2023-01-31T12:56:39;97536.50;;;5.06;50.13
49515;BME280;35415;47.870;16.058;2023-01-31T12:59:19;97551.81;;;5.10;50.14
49515;BME280;35415;47.870;16.058;2023-01-31T13:01:55;97522.72;;;5.09;50.47
49515;BME280;35415;47.870;16.058;2023-01-31T13:04:31;97535.25;;;5.20;49.70
49515;BME280;35415;47.870;16.058;2023-01-31T13:07:05;97526.91;;;5.17;49.44
49515;BME280;35415;47.870;16.058;2023-01-31T13:09:35;97547.47;;;5.28;49.91
49515;BME280;35415;47.870;16.058;2023-01-31T13:12:06;97521.97;;;5.32;48.91
49515;BME280;35415;47.870;16.058;2023-01-31T13:14:38;97529.75;;;5.33;49.16
49515;BME280;35415;47.870;16.058;2023-01-31T13:17:10;97530.09;;;5.37;48.68
49515;BME280;35415;47.870;16.058;2023-01-31T13:19:42;97490.88;;;5.26;48.57
49515;BME280;35415;47.870;16.058;2023-01-31T13:22:13;97521.28;;;5.36;48.77
49515;BME280;35415;47.870;16.058;2023-01-31T13:24:43;97519.00;;;5.40;48.93
49515;BME280;35415;47.870;16.058;2023-01-31T13:27:18;97537.88;;;5.38;49.13
49515;BME280;35415;47.870;16.058;2023-01-31T13:29:51;97523.50;;;5.39;48.41
49515;BME280;35415;47.870;16.058;2023-01-31T13:32:26;97520.63;;;5.41;48.70
49515;BME280;35415;47.870;16.058;2023-01-31T13:34:59;97488.22;;;5.26;48.18
49515;BME280;35415;47.870;16.058;2023-01-31T13:37:30;97511.34;;;5.43;47.94
49515;BME280;35415;47.870;16.058;2023-01-31T13:40:02;97497.66;;;5.40;48.00
49515;BME280;35415;47.870;16.058;2023-01-31T13:42:32;97488.25;;;5.49;47.96
49515;BME280;35415;47.870;16.058;2023-01-31T13:45:02;97488.25;;;5.49;47.12